Plainview, TX

2:56 PM CST on December 12, 2019 (GMT -0600)
Hale County

Weather History for KPVW - November, 2019

Change the Weather History Date:

Thursday, November 14, 2019

  Actual Average Record
Temperature  
Mean Temperature 42 °F -  
Max Temperature 52 °F 61 °F 81 °F (1967)
Min Temperature 31 °F 35 °F 6 °F (1916)
Degree Days  
Heating Degree Days 24    
Moisture  
Dew Point 26 °F    
Average Humidity 59    
Maximum Humidity 78    
Minimum Humidity 39    
Precipitation  
Precipitation 0.00 in - - ()
Sea Level Pressure  
Sea Level Pressure 30.32 in    
Wind  
Wind Speed 10 mph (NE)    
Max Wind Speed 16 mph    
Max Gust Speed 22 mph    
Visibility 10 miles    
Events      
Averages and records for this station are not official NWS values.
T = Trace of Precipitation, MM = Missing Value Source: NWS Daily Summary

Daily Weather History Graph

Daily Weather History Graph

Search for Another Location

Airport or City:

Astronomy

Nov. 14, 2019 Rise Set
Actual Time 7:18 AM CST 5:43 PM CST
Civil Twilight 6:52 AM CST 6:10 PM CST
Nautical Twilight 6:21 AM CST 6:40 PM CST
Astronomical Twilight 5:52 AM CST 7:10 PM CST
Moon 7:34 PM CST (11/14) 9:13 AM CST (11/14)
Length of Visible Light 11h 18m
Length of Day
10h 25m
Waning Gibbous, 95% of the Moon is Illuminated
Nov 14
Waning Gibbous
Nov 19
Last Quarter
Nov 26
New
Dec 4
First Quarter
Dec 11
Full

Hourly Weather History & Observations

Time (CST) Temp. Windchill Dew Point Humidity Pressure Visibility Wind Dir Wind Speed Gust Speed Precip Events Conditions
12:15 AM 35.4 °F 28.4 °F 27.3 °F 72% 30.10 in 10.0 mi North 9.2 mph - N/A   Clear
12:55 AM 37.4 °F 30.3 °F 25.2 °F 61% 30.11 in 10.0 mi North 10.4 mph - N/A   Clear
1:15 AM 37.4 °F 29.3 °F 23.0 °F 56% 30.12 in 10.0 mi North 12.7 mph - N/A   Clear
1:35 AM 37.4 °F 28.9 °F 22.8 °F 56% 30.13 in 10.0 mi North 13.8 mph - N/A   Clear
1:55 AM 37.9 °F 30.0 °F 22.1 °F 53% 30.13 in 10.0 mi NNE 12.7 mph 18.4 mph N/A   Clear
2:15 AM 36.9 °F 28.2 °F 21.9 °F 55% 30.15 in 10.0 mi NNE 13.8 mph - N/A   Clear
2:35 AM 37.4 °F 28.9 °F 23.0 °F 56% 30.15 in 10.0 mi NNE 13.8 mph - N/A   Clear
2:55 AM 37.0 °F 28.9 °F 23.0 °F 57% 30.16 in 10.0 mi NNE 12.7 mph 18.4 mph N/A   Clear
3:15 AM 37.2 °F 29.1 °F 23.0 °F 56% 30.17 in 10.0 mi NNE 12.7 mph 21.9 mph N/A   Clear
3:35 AM 36.5 °F 29.2 °F 23.2 °F 59% 30.18 in 10.0 mi NNE 10.4 mph - N/A   Clear
3:55 AM 35.4 °F 27.3 °F 23.0 °F 61% 30.18 in 10.0 mi NNE 11.5 mph - N/A   Clear
4:15 AM 34.9 °F 27.1 °F 23.0 °F 62% 30.19 in 10.0 mi NNE 10.4 mph - N/A   Clear
4:35 AM 34.7 °F 26.4 °F 23.5 °F 64% 30.20 in 10.0 mi NNE 11.5 mph - N/A   Clear
4:55 AM 35.6 °F 27.5 °F 23.9 °F 62% 30.21 in 10.0 mi NNE 11.5 mph - N/A   Clear
5:15 AM 35.1 °F 26.4 °F 24.1 °F 64% 30.21 in 10.0 mi NE 12.7 mph 18.4 mph N/A   Clear
5:35 AM 34.9 °F 26.2 °F 24.3 °F 65% 30.22 in 10.0 mi NE 12.7 mph - N/A   Clear
5:55 AM 33.8 °F 25.8 °F 24.6 °F 69% 30.23 in 10.0 mi NE 10.4 mph - N/A   Clear
6:15 AM 33.1 °F 26.1 °F 25.3 °F 73% 30.25 in 10.0 mi NE 8.1 mph - N/A   Clear
6:35 AM 34.0 °F 26.0 °F 26.6 °F 74% 30.25 in 10.0 mi NNE 10.4 mph - N/A   Clear
6:55 AM 33.3 °F 25.1 °F 26.4 °F 76% 30.27 in 10.0 mi NNE 10.4 mph - N/A   Clear
7:15 AM 32.9 °F 24.7 °F 26.2 °F 76% 30.28 in 10.0 mi NNE 10.4 mph - N/A   Clear
7:35 AM 32.9 °F 24.7 °F 26.2 °F 76% 30.30 in 10.0 mi NE 10.4 mph - N/A   Clear
7:55 AM 34.0 °F 27.2 °F 26.8 °F 75% 30.31 in 10.0 mi NE 8.1 mph - N/A   Clear
8:15 AM 34.9 °F 26.6 °F 27.1 °F 73% 30.32 in 10.0 mi NE 11.5 mph - N/A   Clear
8:35 AM 36.0 °F 28.0 °F 27.5 °F 71% 30.34 in 10.0 mi NE 11.5 mph - N/A   Clear
8:55 AM 37.4 °F 30.3 °F 28.2 °F 69% 30.34 in 10.0 mi NE 10.4 mph - N/A   Clear
9:15 AM 40.1 °F 32.4 °F 29.8 °F 67% 30.35 in 10.0 mi NE 13.8 mph - N/A   Clear
9:35 AM 41.7 °F 33.7 °F 30.2 °F 64% 30.36 in 10.0 mi ENE 16.1 mph - N/A   Clear
9:55 AM 43.0 °F 35.4 °F 30.4 °F 61% 30.37 in 10.0 mi ENE 16.1 mph - N/A   Clear
10:15 AM 44.2 °F 37.3 °F 30.7 °F 59% 30.38 in 10.0 mi NE 15.0 mph 21.9 mph N/A   Clear
10:35 AM 45.9 °F 39.4 °F 30.2 °F 54% 30.39 in 10.0 mi ENE 15.0 mph 19.6 mph N/A   Clear
10:55 AM 47.5 °F - 29.3 °F 49% 30.39 in 10.0 mi ENE 12.7 mph - N/A   Scattered Clouds
11:15 AM 48.0 °F - 28.2 °F 46% 30.39 in 10.0 mi ENE 12.7 mph 21.9 mph N/A   Clear
11:35 AM 48.6 °F - 28.4 °F 46% 30.39 in 10.0 mi ENE 11.5 mph 20.7 mph N/A   Clear
11:55 AM 49.3 °F - 28.6 °F 45% 30.39 in 10.0 mi ENE 10.4 mph - N/A   Clear
12:15 PM 49.6 °F - 28.0 °F 43% 30.38 in 10.0 mi ENE 13.8 mph 18.4 mph N/A   Clear
12:35 PM 50.2 °F - 28.2 °F 43% 30.38 in 10.0 mi NE 9.2 mph - N/A   Clear
12:55 PM 51.3 °F - 28.6 °F 42% 30.37 in 10.0 mi NE 10.4 mph - N/A   Clear
1:15 PM 50.4 °F - 28.4 °F 43% 30.37 in 10.0 mi NE 8.1 mph 16.1 mph N/A   Clear
1:35 PM 50.2 °F - 28.2 °F 43% 30.36 in 10.0 mi ENE 4.6 mph 10.4 mph N/A   Clear
1:55 PM 51.6 °F - 28.0 °F 40% 30.35 in 10.0 mi East 8.1 mph - N/A   Clear
2:15 PM 51.4 °F - 28.6 °F 41% 30.35 in 10.0 mi ENE 6.9 mph 10.4 mph N/A   Clear
2:35 PM 52.0 °F - 28.0 °F 40% 30.34 in 10.0 mi North 4.6 mph - N/A   Clear
2:55 PM 51.3 °F - 28.0 °F 41% 30.34 in 10.0 mi North 5.8 mph - N/A   Clear
3:15 PM 52.0 °F - 28.2 °F 40% 30.34 in 10.0 mi ENE 9.2 mph - N/A   Clear
3:35 PM 52.2 °F - 28.2 °F 40% 30.34 in 10.0 mi ESE 5.8 mph - N/A   Clear
3:55 PM 52.5 °F - 28.2 °F 39% 30.35 in 10.0 mi East 8.1 mph - N/A   Clear
4:15 PM 52.0 °F - 28.0 °F 40% 30.34 in 10.0 mi NE 3.5 mph - N/A   Clear
4:55 PM 51.1 °F - 27.9 °F 41% 30.35 in 10.0 mi East 4.6 mph - N/A   Clear
5:15 PM 50.0 °F - 27.5 °F 42% 30.35 in 10.0 mi East 5.8 mph - N/A   Clear
5:35 PM 47.3 °F - 27.1 °F 46% 30.36 in 10.0 mi East 5.8 mph - N/A   Clear
5:55 PM 45.7 °F 44.4 °F 27.3 °F 49% 30.36 in 10.0 mi ESE 3.5 mph - N/A   Clear
6:15 PM 43.7 °F 41.1 °F 27.0 °F 52% 30.37 in 10.0 mi SE 4.6 mph - N/A   Clear
6:35 PM 43.0 °F 40.3 °F 27.1 °F 54% 30.38 in 10.0 mi SE 4.6 mph - N/A   Clear
7:15 PM 38.8 °F 35.4 °F 26.1 °F 60% 30.39 in 10.0 mi SE 4.6 mph - N/A   Clear
7:35 PM 38.3 °F 34.8 °F 26.6 °F 63% 30.40 in 10.0 mi SE 4.6 mph - N/A   Clear
7:55 PM 36.9 °F 34.3 °F 26.1 °F 65% 30.40 in 5.0 mi SSE 3.5 mph - N/A   Haze
8:15 PM 37.0 °F 34.5 °F 26.2 °F 65% 30.40 in 10.0 mi SSE 3.5 mph - N/A   Clear
8:35 PM 34.5 °F - 25.0 °F 68% 30.41 in 10.0 mi Calm Calm - N/A   Clear
8:55 PM 35.4 °F - 25.2 °F 66% 30.41 in 10.0 mi Calm Calm - N/A   Clear
9:15 PM 33.6 °F - 25.0 °F 71% 30.41 in 10.0 mi Calm Calm - N/A   Clear
9:35 PM 34.3 °F - 25.3 °F 70% 30.41 in 10.0 mi Calm Calm - N/A   Clear
9:55 PM 32.5 °F 29.3 °F 24.8 °F 73% 30.41 in 10.0 mi South 3.5 mph - N/A   Clear
10:15 PM 32.4 °F - 24.3 °F 72% 30.41 in 10.0 mi Calm Calm - N/A   Clear
10:35 PM 31.5 °F 26.8 °F 23.9 °F 74% 30.42 in 10.0 mi SW 4.6 mph - N/A   Clear
10:55 PM 31.5 °F - 24.3 °F 75% 30.42 in 10.0 mi Calm Calm - N/A   Clear
11:15 PM 31.5 °F 26.8 °F 25.2 °F 78% 30.42 in 10.0 mi SSW 4.6 mph - N/A   Clear
11:35 PM 31.6 °F - 24.6 °F 75% 30.42 in 10.0 mi Calm Calm - N/A   Clear
11:55 PM 31.5 °F - 25.2 °F 78% 30.42 in 10.0 mi Calm Calm - N/A   Clear